Time;durP1;ratioP1;P1;durP2;ratioP2;P2;SDS_P1;SDS_P2;PMS_P1;PMS_P2;Temp;Humidity;BMP_temperature;BMP_pressure;BME280_temperature;BME280_humidity;BME280_pressure;Samples;Min_cycle;Max_cycle;Signal;HPM_P1;HPM_P2
2022/11/12 00:00:36;;;;;;;1999.90;999.90;;;12.90;99.90;;;;;;5016033;28;20456;-82
2022/11/12 00:03:03;;;;;;;1999.90;999.90;;;13.00;99.90;;;;;;5015938;28;20448;-82
2022/11/12 00:05:29;;;;;;;1999.90;999.90;;;13.00;99.90;;;;;;5015937;28;20401;-82
2022/11/12 00:07:54;;;;;;;1999.90;999.90;;;13.10;99.90;;;;;;5015807;28;20018;-82
2022/11/12 00:10:20;;;;;;;1999.90;999.90;;;13.20;99.90;;;;;;5016108;28;20057;-82
2022/11/12 00:12:46;;;;;;;1999.90;999.90;;;13.20;99.90;;;;;;5015241;28;20018;-82
2022/11/12 00:15:12;;;;;;;1999.90;999.90;;;13.20;99.90;;;;;;5014997;28;20040;-82
2022/11/12 00:17:38;;;;;;;1999.90;999.90;;;13.20;99.90;;;;;;5015523;28;20396;-83
2022/11/12 00:20:05;;;;;;;1999.90;999.90;;;13.30;99.90;;;;;;4994647;28;20470;-83
2022/11/12 00:22:31;;;;;;;1999.90;999.90;;;13.40;99.90;;;;;;5003394;28;20049;-82
2022/11/12 00:24:57;;;;;;;1999.90;999.90;;;13.30;99.90;;;;;;5015315;28;20037;-82
2022/11/12 00:27:23;;;;;;;1999.90;999.90;;;13.30;99.90;;;;;;5015518;28;20029;-82
2022/11/12 00:29:48;;;;;;;1999.90;999.90;;;13.30;99.90;;;;;;5015866;28;20029;-82
2022/11/12 00:32:14;;;;;;;1999.90;999.90;;;13.30;99.90;;;;;;5015770;28;20101;-82
2022/11/12 00:34:40;;;;;;;1999.90;999.90;;;13.30;99.90;;;;;;5015333;28;20030;-82
2022/11/12 00:37:05;;;;;;;1999.90;999.90;;;13.20;99.90;;;;;;5015150;28;20082;-82
2022/11/12 00:39:32;;;;;;;1999.90;999.90;;;13.20;99.90;;;;;;5015100;28;20068;-82
2022/11/12 00:41:58;;;;;;;1999.90;999.90;;;13.20;99.90;;;;;;5015651;28;20058;-82
2022/11/12 00:44:23;;;;;;;1999.90;999.90;;;13.20;99.90;;;;;;5015197;28;20473;-82
2022/11/12 00:46:49;;;;;;;1999.90;999.90;;;13.20;99.90;;;;;;4997513;28;20124;-82
2022/11/12 00:49:15;;;;;;;1999.90;999.90;;;13.30;99.90;;;;;;5014867;28;20034;-82
2022/11/12 00:51:41;;;;;;;1999.90;999.90;;;13.20;99.90;;;;;;5015240;28;20033;-82
2022/11/12 00:54:07;;;;;;;1999.90;999.90;;;13.20;99.90;;;;;;5014984;28;20053;-82
2022/11/12 00:56:33;;;;;;;1999.90;999.90;;;13.20;99.90;;;;;;5014560;28;20105;-82
2022/11/12 00:58:58;;;;;;;1999.90;999.90;;;13.20;99.90;;;;;;5014979;28;20111;-82
2022/11/12 01:01:24;;;;;;;1999.90;999.90;;;13.20;99.90;;;;;;5014868;28;20026;-82
2022/11/12 01:03:50;;;;;;;1999.90;999.90;;;13.10;99.90;;;;;;4997254;28;20030;-82
2022/11/12 01:06:21;;;;;;;1999.90;999.90;;;13.10;99.90;;;;;;5015079;28;20033;-82
2022/11/12 01:08:47;;;;;;;1999.90;999.90;;;13.10;99.90;;;;;;5014044;28;20044;-82
2022/11/12 01:11:17;;;;;;;1999.90;999.90;;;13.20;99.90;;;;;;5014069;28;20508;-82
2022/11/12 01:13:44;;;;;;;1999.90;999.90;;;13.20;99.90;;;;;;5033674;28;20038;-82
2022/11/12 01:16:18;;;;;;;1999.90;999.90;;;13.10;99.90;;;;;;5034073;28;20033;-82
2022/11/12 01:18:44;;;;;;;1999.90;999.90;;;13.10;99.90;;;;;;5022356;28;20065;-82
2022/11/12 01:21:10;;;;;;;1999.90;999.90;;;13.10;99.90;;;;;;4994884;28;20026;-82
2022/11/12 01:23:38;;;;;;;1999.90;999.90;;;13.10;99.90;;;;;;4994651;28;20113;-82
2022/11/12 01:26:05;;;;;;;1999.90;999.90;;;13.10;99.90;;;;;;4994795;28;20018;-82
2022/11/12 01:28:31;;;;;;;1999.90;999.90;;;13.10;99.90;;;;;;4995036;28;20031;-82
2022/11/12 01:30:57;;;;;;;1999.90;999.90;;;13.10;99.90;;;;;;4994756;28;20054;-82
2022/11/12 01:33:22;;;;;;;1999.90;999.90;;;13.30;99.90;;;;;;4994663;28;20023;-82
2022/11/12 01:35:48;;;;;;;1999.90;999.90;;;13.20;99.90;;;;;;4994781;28;20474;-82
2022/11/12 01:38:14;;;;;;;1999.90;999.90;;;13.10;99.90;;;;;;4994636;28;20466;-82
2022/11/12 01:40:39;;;;;;;1999.90;999.90;;;13.10;99.90;;;;;;4994821;28;20031;-82
2022/11/12 01:43:12;;;;;;;1999.90;999.90;;;13.10;99.90;;;;;;4994468;28;20382;-82
2022/11/12 01:45:45;;;;;;;1999.90;999.90;;;13.00;99.90;;;;;;5013318;28;20137;-82
2022/11/12 01:48:36;;;;;;;1999.90;999.90;;;13.00;99.90;;;;;;5014262;28;20018;-82
2022/11/12 01:51:03;;;;;;;1999.90;999.90;;;12.90;99.90;;;;;;5002795;28;20452;-82
2022/11/12 01:53:34;;;;;;;1999.90;999.90;;;12.80;99.90;;;;;;5013505;28;20088;-82
2022/11/12 01:56:04;;;;;;;1999.90;999.90;;;12.70;99.90;;;;;;4996618;28;20054;-82
2022/11/12 01:58:32;;;;;;;1999.90;999.90;;;12.70;99.90;;;;;;4996436;28;20026;-83
2022/11/12 02:01:00;;;;;;;1999.90;999.90;;;12.70;99.90;;;;;;5013643;28;20026;-82
2022/11/12 02:03:25;;;;;;;1999.90;999.90;;;12.70;99.90;;;;;;5013518;28;20025;-82
2022/11/12 02:05:58;;;;;;;1999.90;999.90;;;12.70;99.90;;;;;;5013749;28;20042;-82
2022/11/12 02:08:24;;;;;;;1999.90;999.90;;;12.70;99.90;;;;;;5013550;28;20022;-82
2022/11/12 02:10:49;;;;;;;1999.90;999.90;;;12.70;99.90;;;;;;5013596;28;20034;-82
2022/11/12 02:16:03;;;;;;;1999.90;999.90;;;12.60;99.90;;;;;;5013100;28;20076;-82
2022/11/12 02:18:28;;;;;;;1999.90;999.90;;;12.50;99.90;;;;;;5010018;28;20437;-82
2022/11/12 02:21:02;;;;;;;1999.90;999.90;;;12.50;99.90;;;;;;4993589;28;20033;-82
2022/11/12 02:23:27;;;;;;;1999.90;999.90;;;12.40;99.90;;;;;;4993116;28;20026;-82
2022/11/12 02:25:53;;;;;;;1999.90;999.90;;;12.30;99.90;;;;;;4993582;28;20081;-82
2022/11/12 02:28:19;;;;;;;1999.90;999.90;;;12.30;99.90;;;;;;4993680;28;20379;-83
2022/11/12 02:30:47;;;;;;;1999.90;999.90;;;12.30;99.90;;;;;;4993551;28;20105;-82
2022/11/12 02:33:13;;;;;;;1999.90;999.90;;;12.40;99.90;;;;;;4993733;28;20405;-82
2022/11/12 02:35:39;;;;;;;1999.90;999.90;;;12.40;99.90;;;;;;4993538;28;20026;-82
2022/11/12 02:38:06;;;;;;;1999.90;999.90;;;12.50;99.90;;;;;;4993389;28;20026;-82
2022/11/12 02:40:32;;;;;;;1999.90;999.90;;;12.60;99.90;;;;;;4993904;28;20033;-82
2022/11/12 02:42:58;;;;;;;1999.90;999.90;;;12.60;99.90;;;;;;4993485;28;20038;-82
2022/11/12 02:45:25;;;;;;;1999.90;999.90;;;12.60;99.90;;;;;;5009899;28;20037;-82
2022/11/12 02:47:50;;;;;;;1999.90;999.90;;;12.50;99.90;;;;;;4995335;28;20386;-82
2022/11/12 02:50:17;;;;;;;1999.90;999.90;;;12.50;99.90;;;;;;5013222;28;20037;-82
2022/11/12 02:52:42;;;;;;;1999.90;999.90;;;12.50;99.90;;;;;;5012818;28;20018;-82
2022/11/12 02:55:10;;;;;;;1999.90;999.90;;;12.50;99.90;;;;;;5012703;28;20568;-82
2022/11/12 02:57:37;;;;;;;1999.90;999.90;;;12.40;99.90;;;;;;5012562;28;20512;-82
2022/11/12 03:00:05;;;;;;;1999.90;999.90;;;12.40;99.90;;;;;;5015106;28;20026;-82
2022/11/12 03:02:31;;;;;;;1999.90;999.90;;;12.40;99.90;;;;;;5032698;28;20451;-83
2022/11/12 03:04:56;;;;;;;1999.90;999.90;;;12.40;99.90;;;;;;5032392;28;20029;-82
2022/11/12 03:07:22;;;;;;;1999.90;999.90;;;12.40;99.90;;;;;;5032312;28;20104;-82
2022/11/12 03:09:47;;;;;;;1999.90;999.90;;;12.40;99.90;;;;;;5032385;28;20032;-82
2022/11/12 03:12:13;;;;;;;1999.90;999.90;;;12.30;99.90;;;;;;5032252;28;20075;-82
2022/11/12 03:14:39;;;;;;;1999.90;999.90;;;12.30;99.90;;;;;;5032348;28;20504;-82
2022/11/12 03:17:05;;;;;;;1999.90;999.90;;;12.20;99.90;;;;;;5031170;28;20514;-82
2022/11/12 03:19:30;;;;;;;1999.90;999.90;;;12.20;99.90;;;;;;5008133;28;20031;-82
2022/11/12 03:21:56;;;;;;;1999.90;999.90;;;12.20;99.90;;;;;;4992627;28;20022;-82
2022/11/12 03:24:21;;;;;;;1999.90;999.90;;;12.30;99.90;;;;;;4975072;28;20042;-82
2022/11/12 03:26:47;;;;;;;1999.90;999.90;;;12.30;99.90;;;;;;4992888;28;20073;-82
2022/11/12 03:29:13;;;;;;;1999.90;999.90;;;12.30;99.90;;;;;;4992779;28;20393;-82
2022/11/12 03:31:38;;;;;;;1999.90;999.90;;;12.30;99.90;;;;;;4992802;28;20022;-82
2022/11/12 03:34:04;;;;;;;1999.90;999.90;;;12.30;99.90;;;;;;4998594;28;20033;-82
2022/11/12 03:36:29;;;;;;;1999.90;999.90;;;12.30;99.90;;;;;;4999453;28;20486;-82
2022/11/12 03:38:55;;;;;;;1999.90;999.90;;;12.20;99.90;;;;;;4999005;28;20030;-82
2022/11/12 03:41:21;;;;;;;1999.90;999.90;;;12.20;99.90;;;;;;4999413;28;20121;-82
2022/11/12 03:43:46;;;;;;;1999.90;999.90;;;12.20;99.90;;;;;;5002656;28;20101;-82
2022/11/12 03:46:12;;;;;;;1999.90;999.90;;;12.00;99.90;;;;;;5019022;28;20030;-82
2022/11/12 03:48:38;;;;;;;1999.90;999.90;;;12.00;99.90;;;;;;5018837;28;20030;-82
2022/11/12 03:51:03;;;;;;;1999.90;999.90;;;12.00;99.90;;;;;;5001111;28;20029;-82
2022/11/12 03:53:29;;;;;;;1999.90;999.90;;;11.90;99.90;;;;;;5018361;28;20018;-82
2022/11/12 03:55:55;;;;;;;1999.90;999.90;;;11.90;99.90;;;;;;5019022;28;20059;-82
2022/11/12 03:58:20;;;;;;;1999.90;999.90;;;11.90;99.90;;;;;;5001144;28;20121;-82
2022/11/12 04:00:46;;;;;;;1999.90;999.90;;;11.90;99.90;;;;;;5018756;28;20059;-82
2022/11/12 04:03:11;;;;;;;1999.90;999.90;;;11.90;99.90;;;;;;5018676;28;20468;-82
2022/11/12 04:08:35;;;;;;;1999.90;999.90;;;11.90;99.90;;;;;;5018665;28;20048;-82
2022/11/12 04:11:21;;;;;;;1999.90;999.90;;;12.00;99.90;;;;;;5018600;28;20466;-82
2022/11/12 04:13:47;;;;;;;1999.90;999.90;;;11.90;99.90;;;;;;4997958;28;20062;-82
2022/11/12 04:21:54;;;;;;;1999.90;999.90;;;11.80;99.90;;;;;;4998620;28;20131;-82
2022/11/12 04:27:19;;;;;;;1999.90;999.90;;;11.80;99.90;;;;;;4998547;28;20032;-82
2022/11/12 04:32:32;;;;;;;1999.90;999.90;;;11.80;99.90;;;;;;4999023;28;20073;-82
2022/11/12 04:34:58;;;;;;;1999.90;999.90;;;11.80;99.90;;;;;;4981332;28;20030;-82
2022/11/12 04:37:26;;;;;;;1999.90;999.90;;;11.70;99.90;;;;;;4998651;28;20038;-82
2022/11/12 04:39:51;;;;;;;1999.90;999.90;;;11.70;99.90;;;;;;4997409;28;20409;-82
2022/11/12 04:45:08;;;;;;;1999.90;999.90;;;11.60;99.90;;;;;;5010170;28;20040;-82
2022/11/12 04:47:37;;;;;;;1999.90;999.90;;;11.50;99.90;;;;;;5015038;28;20084;-82
2022/11/12 04:50:11;;;;;;;1999.90;999.90;;;11.50;99.90;;;;;;5015135;28;20493;-82
2022/11/12 04:52:37;;;;;;;1999.90;999.90;;;11.50;99.90;;;;;;5015055;28;20025;-82
2022/11/12 04:55:03;;;;;;;1999.90;999.90;;;11.50;99.90;;;;;;5014956;28;20046;-82
2022/11/12 04:57:28;;;;;;;1999.90;999.90;;;11.60;99.90;;;;;;5015285;28;20057;-82
2022/11/12 04:59:54;;;;;;;1999.90;999.90;;;11.60;99.90;;;;;;5014807;28;20129;-82
2022/11/12 05:02:20;;;;;;;1999.90;999.90;;;11.60;99.90;;;;;;5015123;28;20030;-82
2022/11/12 05:04:46;;;;;;;1999.90;999.90;;;11.60;99.90;;;;;;5014943;28;20101;-82
2022/11/12 05:07:11;;;;;;;1999.90;999.90;;;11.60;99.90;;;;;;5014821;28;20481;-82
2022/11/12 05:09:37;;;;;;;1999.90;999.90;;;11.60;99.90;;;;;;5014719;28;20054;-82
2022/11/12 05:12:03;;;;;;;1999.90;999.90;;;11.60;99.90;;;;;;5014294;28;20396;-82
2022/11/12 05:14:29;;;;;;;1999.90;999.90;;;11.60;99.90;;;;;;5014928;28;20106;-82
2022/11/12 05:16:54;;;;;;;1999.90;999.90;;;11.60;99.90;;;;;;5013992;28;20088;-82
2022/11/12 05:19:20;;;;;;;1999.90;999.90;;;11.70;99.90;;;;;;5014547;28;20032;-82
2022/11/12 05:22:04;;;;;;;1999.90;999.90;;;11.70;99.90;;;;;;5013753;28;20033;-82
2022/11/12 05:24:40;;;;;;;1999.90;999.90;;;11.70;99.90;;;;;;5013905;28;20022;-83
2022/11/12 05:27:10;;;;;;;1999.90;999.90;;;11.70;99.90;;;;;;5014708;28;20378;-82
2022/11/12 05:29:36;;;;;;;1999.90;999.90;;;11.80;99.90;;;;;;5014368;28;20402;-82
2022/11/12 05:32:03;;;;;;;1999.90;999.90;;;11.80;99.90;;;;;;5013485;28;20084;-82
2022/11/12 05:34:29;;;;;;;1999.90;999.90;;;11.90;99.90;;;;;;5013523;28;20026;-82
2022/11/12 05:36:55;;;;;;;1999.90;999.90;;;12.10;99.90;;;;;;5014380;28;20036;-82
2022/11/12 05:39:21;;;;;;;1999.90;999.90;;;12.10;99.90;;;;;;5014140;28;20033;-82
2022/11/12 05:41:47;;;;;;;1999.90;999.90;;;12.20;99.90;;;;;;5014158;28;20026;-82
2022/11/12 05:44:12;;;;;;;1999.90;999.90;;;12.30;99.90;;;;;;5014355;28;20022;-83
2022/11/12 05:46:38;;;;;;;1999.90;999.90;;;12.40;99.90;;;;;;5014151;28;20049;-82
2022/11/12 05:49:04;;;;;;;1999.90;999.90;;;12.50;99.90;;;;;;5014136;28;20017;-82
2022/11/12 05:51:29;;;;;;;1999.90;999.90;;;12.60;99.90;;;;;;5014184;28;20025;-82
2022/11/12 05:53:55;;;;;;;1999.90;999.90;;;12.60;99.90;;;;;;5013460;28;20049;-82
2022/11/12 05:56:21;;;;;;;1999.90;999.90;;;12.50;99.90;;;;;;5013601;28;20108;-82
2022/11/12 05:58:46;;;;;;;1999.90;999.90;;;12.60;99.90;;;;;;5013869;28;20037;-82
2022/11/12 06:01:12;;;;;;;1999.90;999.90;;;12.60;99.90;;;;;;5013369;28;20022;-82
2022/11/12 06:03:38;;;;;;;1999.90;999.90;;;12.60;99.90;;;;;;5013398;28;20026;-82
2022/11/12 06:06:04;;;;;;;1999.90;999.90;;;12.60;99.90;;;;;;5013653;28;20133;-82
2022/11/12 06:08:30;;;;;;;1999.90;999.90;;;12.70;99.90;;;;;;5013553;28;20105;-83
2022/11/12 06:10:56;;;;;;;1999.90;999.90;;;12.60;99.90;;;;;;4996123;28;20022;-82
2022/11/12 06:13:23;;;;;;;1999.90;999.90;;;12.60;99.90;;;;;;5013474;28;20064;-82
2022/11/12 06:15:49;;;;;;;1999.90;999.90;;;12.60;99.90;;;;;;5013693;28;20040;-82
2022/11/12 06:18:14;;;;;;;1999.90;999.90;;;12.50;99.90;;;;;;5012917;28;20477;-82
2022/11/12 06:20:40;;;;;;;1999.90;999.90;;;12.50;99.90;;;;;;5013469;28;20042;-82
2022/11/12 06:23:06;;;;;;;1999.90;999.90;;;12.60;99.90;;;;;;5012900;28;20077;-82
2022/11/12 06:25:32;;;;;;;1999.90;999.90;;;12.70;99.90;;;;;;5013340;28;20053;-82
2022/11/12 06:27:57;;;;;;;1999.90;999.90;;;12.70;99.90;;;;;;5013670;28;20438;-82
2022/11/12 06:30:23;;;;;;;1999.90;999.90;;;12.70;99.90;;;;;;5013630;28;20053;-82
2022/11/12 06:32:49;;;;;;;1999.90;999.90;;;12.60;99.90;;;;;;4995059;28;20065;-82
2022/11/12 06:35:16;;;;;;;1999.90;999.90;;;12.50;99.90;;;;;;5013035;28;20025;-82
2022/11/12 06:37:43;;;;;;;1999.90;999.90;;;12.50;99.90;;;;;;5012910;28;20493;-82
2022/11/12 06:40:09;;;;;;;1999.90;999.90;;;12.40;99.90;;;;;;5013395;28;20034;-82
2022/11/12 06:42:35;;;;;;;1999.90;999.90;;;12.40;99.90;;;;;;5013470;28;20034;-82
2022/11/12 06:45:00;;;;;;;1999.90;999.90;;;12.40;99.90;;;;;;4999598;28;20464;-82
2022/11/12 06:47:26;;;;;;;1999.90;999.90;;;12.40;99.90;;;;;;4993362;28;20385;-82
2022/11/12 06:49:51;;;;;;;1999.90;999.90;;;12.30;99.90;;;;;;4997470;28;20064;-82
2022/11/12 06:52:17;;;;;;;1999.90;999.90;;;12.20;99.90;;;;;;4995434;28;20374;-82
2022/11/12 06:54:43;;;;;;;1999.90;999.90;;;12.20;99.90;;;;;;5013120;28;20061;-82
2022/11/12 06:57:09;;;;;;;1999.90;999.90;;;12.20;99.90;;;;;;5013004;28;20588;-82
2022/11/12 06:59:34;;;;;;;1999.90;999.90;;;12.20;99.90;;;;;;5012718;28;20108;-82
2022/11/12 07:02:00;;;;;;;1999.90;999.90;;;12.10;99.90;;;;;;4995232;28;20500;-82
2022/11/12 07:04:26;;;;;;;1999.90;999.90;;;12.10;99.90;;;;;;5012858;28;20485;-82
2022/11/12 07:06:51;;;;;;;1999.90;999.90;;;12.00;99.90;;;;;;5012566;28;20112;-82
2022/11/12 07:09:17;;;;;;;1999.90;999.90;;;11.90;99.90;;;;;;5012147;28;20030;-82
2022/11/12 07:11:43;;;;;;;1999.90;999.90;;;11.90;99.90;;;;;;5012622;28;20488;-82
2022/11/12 07:14:08;;;;;;;1999.90;999.90;;;11.90;99.90;;;;;;5012644;28;20018;-82
2022/11/12 07:16:34;;;;;;;1999.90;999.90;;;11.90;99.90;;;;;;4995003;28;20021;-82
2022/11/12 07:19:00;;;;;;;1999.90;999.90;;;11.90;99.90;;;;;;5006449;28;20050;-82
2022/11/12 07:21:26;;;;;;;1999.90;999.90;;;11.90;99.90;;;;;;4992518;28;20112;-82
2022/11/12 07:23:52;;;;;;;1999.90;999.90;;;11.90;99.90;;;;;;4974267;28;20074;-82
2022/11/12 07:26:20;;;;;;;1999.90;999.90;;;11.90;99.90;;;;;;4992711;28;20031;-82
2022/11/12 07:28:47;;;;;;;1999.90;999.90;;;11.90;99.90;;;;;;4992879;28;20105;-82
2022/11/12 07:31:14;;;;;;;1999.90;999.90;;;11.90;99.90;;;;;;4993017;28;20026;-83
2022/11/12 07:33:40;;;;;;;1999.90;999.90;;;11.90;99.90;;;;;;4991936;28;20033;-82
2022/11/12 07:36:09;;;;;;;1999.90;999.90;;;11.90;99.90;;;;;;4975557;28;20030;-82
2022/11/12 07:38:37;;;;;;;1999.90;999.90;;;11.80;99.90;;;;;;4992852;28;20109;-82
2022/11/12 07:41:11;;;;;;;1999.90;999.90;;;11.70;99.90;;;;;;4975428;28;20042;-82
2022/11/12 07:43:38;;;;;;;1999.90;999.90;;;11.80;99.90;;;;;;4994005;28;20061;-82
2022/11/12 07:46:07;;;;;;;1999.90;999.90;;;11.70;99.90;;;;;;5022909;28;20034;-82
2022/11/12 07:48:33;;;;;;;1999.90;999.90;;;11.70;99.90;;;;;;5027915;28;20034;-82
2022/11/12 07:51:04;;;;;;;1999.90;999.90;;;11.80;99.90;;;;;;5012296;28;20053;-82
2022/11/12 07:53:30;;;;;;;1999.90;999.90;;;11.80;99.90;;;;;;5011992;28;20409;-82
2022/11/12 07:55:58;;;;;;;1999.90;999.90;;;11.90;99.90;;;;;;5011803;28;20037;-82
2022/11/12 07:58:24;;;;;;;1999.90;999.90;;;12.00;99.90;;;;;;5012404;28;20033;-82
2022/11/12 08:00:51;;;;;;;1999.90;999.90;;;12.10;99.90;;;;;;5012355;28;20442;-82
2022/11/12 08:03:17;;;;;;;1999.90;999.90;;;12.20;99.90;;;;;;5012458;28;20030;-82
2022/11/12 08:05:43;;;;;;;1999.90;999.90;;;12.20;99.90;;;;;;5011915;28;20092;-82
2022/11/12 08:08:09;;;;;;;1999.90;999.90;;;12.30;99.90;;;;;;4994555;28;20456;-82
2022/11/12 08:10:35;;;;;;;1999.90;999.90;;;12.40;99.90;;;;;;5012704;28;20430;-82
2022/11/12 08:13:01;;;;;;;1999.90;999.90;;;12.60;99.90;;;;;;5011913;28;20057;-82
2022/11/12 08:15:27;;;;;;;1999.90;999.90;;;12.80;99.90;;;;;;5012564;28;20053;-83
2022/11/12 08:17:52;;;;;;;1999.90;999.90;;;13.20;99.90;;;;;;5011544;28;20033;-82
2022/11/12 08:20:18;;;;;;;1999.90;999.90;;;13.30;99.90;;;;;;4998587;28;20033;-82
2022/11/12 08:22:43;;;;;;;1999.90;999.90;;;13.30;99.90;;;;;;4995969;28;20113;-82
2022/11/12 08:25:09;;;;;;;1999.90;999.90;;;13.30;99.90;;;;;;4995632;28;20038;-82
2022/11/12 08:27:35;;;;;;;1999.90;999.90;;;13.30;99.90;;;;;;4996298;28;20030;-82
2022/11/12 08:30:01;;;;;;;1999.90;999.90;;;13.40;99.90;;;;;;4978725;28;20433;-82
2022/11/12 08:32:26;;;;;;;1999.90;999.90;;;13.40;99.90;;;;;;4996215;28;20029;-82
2022/11/12 08:34:52;;;;;;;1999.90;999.90;;;13.50;99.90;;;;;;4995575;28;20098;-83
2022/11/12 08:37:18;;;;;;;1999.90;999.90;;;13.50;99.90;;;;;;4995752;28;20555;-82
2022/11/12 08:39:43;;;;;;;1999.90;999.90;;;13.60;99.90;;;;;;4995768;28;20026;-82
2022/11/12 08:42:09;;;;;;;1999.90;999.90;;;13.60;99.90;;;;;;4978319;28;20401;-83
2022/11/12 08:44:34;;;;;;;1999.90;999.90;;;13.70;99.90;;;;;;5005754;28;20024;-83
2022/11/12 08:47:01;;;;;;;1999.90;999.90;;;13.80;99.90;;;;;;5026436;28;20026;-82
2022/11/12 08:49:27;;;;;;;1999.90;999.90;;;13.90;99.90;;;;;;5034958;28;20432;-82
2022/11/12 08:51:53;;;;;;;1999.90;999.90;;;14.00;99.90;;;;;;5035162;28;20037;-83
2022/11/12 08:54:19;;;;;;;1999.90;999.90;;;14.10;99.90;;;;;;5034764;28;20042;-83
2022/11/12 08:56:45;;;;;;;1999.90;999.90;;;14.10;99.90;;;;;;5034930;28;20034;-82
2022/11/12 08:59:10;;;;;;;1999.90;999.90;;;14.20;99.90;;;;;;5034534;28;20424;-82
2022/11/12 09:01:36;;;;;;;1999.90;999.90;;;14.30;99.90;;;;;;5034688;28;20037;-82
2022/11/12 09:04:02;;;;;;;1999.90;999.90;;;14.40;99.90;;;;;;5034663;28;20033;-83
2022/11/12 09:06:27;;;;;;;1999.90;999.90;;;14.50;99.90;;;;;;5017083;28;20029;-83
2022/11/12 09:08:53;;;;;;;1999.90;999.90;;;14.50;99.90;;;;;;5016807;28;20109;-82
2022/11/12 09:11:19;;;;;;;1999.90;999.90;;;14.60;99.90;;;;;;5034319;28;20090;-83
2022/11/12 09:13:44;;;;;;;1999.90;999.90;;;14.80;99.90;;;;;;5034570;28;20021;-83
2022/11/12 09:16:10;;;;;;;1999.90;999.90;;;14.80;99.90;;;;;;5034534;28;20036;-82
2022/11/12 09:18:36;;;;;;;1999.90;999.90;;;14.90;99.90;;;;;;5015655;28;20026;-84
2022/11/12 09:21:04;;;;;;;1999.90;999.90;;;14.90;99.90;;;;;;5014947;28;20044;-83
2022/11/12 09:23:30;;;;;;;1999.90;999.90;;;15.00;99.90;;;;;;5014282;28;20036;-83
2022/11/12 09:25:56;;;;;;;1999.90;999.90;;;15.10;99.90;;;;;;5014345;28;20037;-83
2022/11/12 09:28:22;;;;;;;1999.90;999.90;;;15.20;99.90;;;;;;5015192;28;20543;-83
2022/11/12 09:30:49;;;;;;;1999.90;999.90;;;15.20;99.90;;;;;;5013807;28;20049;-83
2022/11/12 09:33:17;;;;;;;1999.90;999.90;;;15.20;99.90;;;;;;5014790;28;20105;-83
2022/11/12 09:35:44;;;;;;;1999.90;999.90;;;15.20;99.90;;;;;;4995985;28;20519;-83
2022/11/12 09:38:10;;;;;;;1999.90;999.90;;;15.30;99.90;;;;;;5014462;28;20054;-83
2022/11/12 09:40:51;;;;;;;1999.90;999.90;;;15.30;99.90;;;;;;5014235;28;20034;-83
2022/11/12 09:43:43;;;;;;;1999.90;999.90;;;15.40;99.90;;;;;;5014370;28;20053;-83
2022/11/12 09:46:23;;;;;;;1999.90;999.90;;;15.50;99.90;;;;;;4994623;28;20521;-83
2022/11/12 09:48:55;;;;;;;1999.90;999.90;;;15.50;99.90;;;;;;4994963;28;20049;-83
2022/11/12 09:51:26;;;;;;;1999.90;999.90;;;15.60;99.90;;;;;;4994606;28;20109;-83
2022/11/12 09:53:55;;;;;;;1999.90;999.90;;;15.60;99.90;;;;;;4994087;28;20042;-83
2022/11/12 09:56:21;;;;;;;1999.90;999.90;;;15.80;99.90;;;;;;4988005;28;20517;-83
2022/11/12 09:58:48;;;;;;;1999.90;999.90;;;15.80;99.90;;;;;;5014071;28;20112;-83
2022/11/12 10:01:22;;;;;;;1999.90;999.90;;;15.80;99.90;;;;;;4996195;28;20596;-82
2022/11/12 10:03:53;;;;;;;1999.90;999.90;;;15.90;99.90;;;;;;5013767;28;20115;-83
2022/11/12 10:06:22;;;;;;;1999.90;999.90;;;16.00;99.90;;;;;;5013937;28;20030;-83
2022/11/12 10:09:03;;;;;;;1999.90;999.90;;;16.10;99.90;;;;;;5011947;28;20075;-83
2022/11/12 10:14:57;;;;;;;1999.90;999.90;;;16.20;99.90;;;;;;5013887;28;20107;-83
2022/11/12 10:17:33;;;;;;;1999.90;999.90;;;16.20;99.90;;;;;;5012730;28;20153;-83
2022/11/12 10:20:24;;;;;;;1999.90;999.90;;;16.30;99.90;;;;;;5013380;28;20052;-83
2022/11/12 10:23:11;;;;;;;1999.90;999.90;;;16.30;99.90;;;;;;4995059;28;20022;-83
2022/11/12 10:25:39;;;;;;;1999.90;999.90;;;16.40;99.90;;;;;;5013098;28;20044;-83
2022/11/12 10:28:27;;;;;;;1999.90;999.90;;;16.40;99.90;;;;;;5013610;28;20021;-83
2022/11/12 10:31:00;;;;;;;1999.90;999.90;;;16.40;99.90;;;;;;5013618;28;20026;-83
2022/11/12 10:33:32;;;;;;;1999.90;999.90;;;16.60;99.90;;;;;;5013303;28;20069;-83
2022/11/12 10:36:16;;;;;;;1999.90;999.90;;;16.70;99.90;;;;;;5012386;28;20038;-83
2022/11/12 10:38:45;;;;;;;1999.90;999.90;;;16.70;99.90;;;;;;5012963;28;20550;-83
2022/11/12 10:41:29;;;;;;;1999.90;999.90;;;16.70;99.90;;;;;;5013143;28;20034;-83
2022/11/12 10:44:02;;;;;;;1999.90;999.90;;;16.80;99.90;;;;;;5012823;28;20029;-83
2022/11/12 10:46:29;;;;;;;1999.90;999.90;;;16.80;99.90;;;;;;5013210;28;20561;-83
2022/11/12 10:49:02;;;;;;;1999.90;999.90;;;16.90;99.90;;;;;;5013310;28;20053;-83
2022/11/12 10:51:30;;;;;;;1999.90;999.90;;;17.00;99.90;;;;;;5013351;28;20018;-83
2022/11/12 10:53:55;;;;;;;1999.90;999.90;;;17.10;99.90;;;;;;5012550;28;20046;-82
2022/11/12 10:56:30;;;;;;;1999.90;999.90;;;17.10;99.90;;;;;;4995608;28;20136;-83
2022/11/12 10:59:22;;;;;;;1999.90;999.90;;;17.20;99.90;;;;;;4995597;28;20029;-82
2022/11/12 11:01:59;;;;;;;1999.90;999.90;;;17.30;99.90;;;;;;5008841;28;20571;-83
2022/11/12 11:04:34;;;;;;;1999.90;999.90;;;17.30;99.90;;;;;;5012975;28;20040;-83
2022/11/12 11:07:24;;;;;;;1999.90;999.90;;;17.30;99.90;;;;;;5013173;28;20116;-83
2022/11/12 11:09:56;;;;;;;1999.90;999.90;;;17.40;99.90;;;;;;5013120;28;20097;-83
2022/11/12 11:12:29;;;;;;;1999.90;999.90;;;17.50;99.90;;;;;;5021651;28;20052;-83
2022/11/12 11:15:24;;;;;;;1999.90;999.90;;;17.50;99.90;;;;;;5015165;28;20108;-83
2022/11/12 11:17:50;;;;;;;1999.90;999.90;;;17.70;99.90;;;;;;5015381;28;20489;-83
2022/11/12 11:20:39;;;;;;;1999.90;999.90;;;17.70;99.90;;;;;;5012821;28;20037;-83
2022/11/12 11:23:22;;;;;;;1999.90;999.90;;;17.80;99.90;;;;;;4992692;28;20022;-83
2022/11/12 11:25:51;;;;;;;1999.90;999.90;;;17.90;99.90;;;;;;4992098;28;20026;-83
2022/11/12 11:28:45;;;;;;;1999.90;999.90;;;18.10;99.90;;;;;;4992878;28;20034;-83
2022/11/12 11:31:17;;;;;;;1999.90;999.90;;;18.20;99.90;;;;;;4993272;28;20408;-83
2022/11/12 11:34:10;;;;;;;1999.90;999.90;;;18.30;99.90;;;;;;4992717;28;20034;-83
2022/11/12 11:36:44;;;;;;;1999.90;999.90;;;18.40;99.90;;;;;;4975298;28;20045;-83
2022/11/12 11:39:23;;;;;;;1999.90;999.90;;;18.40;99.90;;;;;;4992227;28;20441;-83
2022/11/12 11:42:10;;;;;;;1999.90;999.90;;;18.60;99.90;;;;;;4992590;28;20061;-83
2022/11/12 11:44:49;;;;;;;1999.90;999.90;;;18.50;99.90;;;;;;5002973;28;20029;-84
2022/11/12 11:47:41;;;;;;;1999.90;999.90;;;18.50;99.90;;;;;;5012245;28;20025;-84
2022/11/12 11:50:42;;;;;;;1999.90;999.90;;;18.40;99.90;;;;;;5012322;28;20024;-83
2022/11/12 11:53:19;;;;;;;1999.90;999.90;;;18.40;99.90;;;;;;4913713;29;20361;-83
2022/11/12 11:55:53;;;;;;;1999.90;999.90;;;18.60;99.90;;;;;;4985885;28;20046;-83
2022/11/12 11:58:37;;;;;;;1999.90;999.90;;;18.60;99.90;;;;;;4995368;28;20033;-83
2022/11/12 12:01:35;;;;;;;1999.90;999.90;;;18.80;99.90;;;;;;4996714;28;20081;-83
2022/11/12 12:04:06;;;;;;;1999.90;999.90;;;18.90;99.90;;;;;;4976213;28;20039;-84
2022/11/12 12:06:56;;;;;;;1999.90;999.90;;;19.00;99.90;;;;;;4996740;28;20040;-83
2022/11/12 12:09:33;;;;;;;1999.90;999.90;;;19.10;99.90;;;;;;4985476;28;20042;-83
2022/11/12 12:12:17;;;;;;;1999.90;999.90;;;19.10;99.90;;;;;;4994566;28;20389;-83
2022/11/12 12:15:20;;;;;;;1999.90;999.90;;;19.10;99.90;;;;;;4996651;28;20062;-83
2022/11/12 12:17:58;;;;;;;1999.90;999.90;;;19.10;99.90;;;;;;4995864;28;20448;-84
2022/11/12 12:20:40;;;;;;;1999.90;999.90;;;19.30;99.90;;;;;;4985387;28;20085;-84
2022/11/12 12:23:18;;;;;;;1999.90;999.90;;;19.30;99.90;;;;;;4976477;28;20477;-83
2022/11/12 12:25:47;;;;;;;1999.90;999.90;;;19.20;99.90;;;;;;4976179;28;20074;-83
2022/11/12 12:28:56;;;;;;;1999.90;999.90;;;19.40;99.90;;;;;;4976720;28;20106;-83
2022/11/12 12:31:36;;;;;;;1999.90;999.90;;;19.20;99.90;;;;;;4976027;28;20042;-83